createdAt,value
2023-03-20T00:01:00.128Z,100283.88
2023-03-20T00:02:05.815Z,100282.95
2023-03-20T00:03:11.711Z,100282.95
2023-03-20T00:04:15.405Z,100280.30
2023-03-20T00:05:24.300Z,100275.92
2023-03-20T00:06:28.472Z,100280.42
2023-03-20T00:07:30.901Z,100279.56
2023-03-20T00:08:36.778Z,100276.97
2023-03-20T00:09:40.755Z,100271.67
2023-03-20T00:10:46.503Z,100280.42
2023-03-20T00:11:54.208Z,100273.56
2023-03-20T00:12:57.964Z,100275.28
2023-03-20T00:14:07.832Z,100271.77
2023-03-20T00:15:29.961Z,100272.70
2023-03-20T00:17:58.780Z,100271.28
2023-03-20T00:19:05.839Z,100273.08
2023-03-20T00:20:15.665Z,100266.91
2023-03-20T00:21:25.149Z,100259.77
2023-03-20T00:22:24.459Z,100262.48
2023-03-20T00:23:29.801Z,100261.77
2023-03-20T00:24:36.828Z,100264.48
2023-03-20T00:25:41.311Z,100262.70
2023-03-20T00:26:46.369Z,100269.05
2023-03-20T00:27:51.345Z,100265.48
2023-03-20T00:28:55.013Z,100264.00
2023-03-20T00:29:58.219Z,100260.37
2023-03-20T00:31:00.441Z,100260.43
2023-03-20T00:32:04.222Z,100255.00
2023-03-20T00:33:11.077Z,100255.92
2023-03-20T00:34:17.862Z,100249.77
2023-03-20T00:35:28.325Z,100262.16
2023-03-20T00:36:33.858Z,100254.27
2023-03-20T00:37:35.982Z,100255.92
2023-03-20T00:38:38.140Z,100253.41
2023-03-20T00:39:40.730Z,100254.27
2023-03-20T00:40:43.480Z,100257.91
2023-03-20T00:42:01.605Z,100250.24
2023-03-20T00:43:04.320Z,100255.41
2023-03-20T00:44:31.353Z,100244.02
2023-03-20T00:45:35.676Z,100245.80
2023-03-20T00:46:39.730Z,100243.22
2023-03-20T00:47:45.862Z,100244.94
2023-03-20T00:48:51.287Z,100244.20
2023-03-20T00:49:56.254Z,100252.09
2023-03-20T00:50:59.081Z,100244.27
2023-03-20T00:52:03.777Z,100244.27
2023-03-20T00:53:11.984Z,100246.85
2023-03-20T00:54:18.401Z,100244.20
2023-03-20T00:55:25.322Z,100247.04
2023-03-20T00:56:39.559Z,100248.92
2023-03-20T00:57:46.350Z,100249.69
2023-03-20T00:58:49.336Z,100240.17
2023-03-20T01:00:02.550Z,100243.53
2023-03-20T01:01:05.358Z,100246.91
2023-03-20T01:02:11.879Z,100241.73
2023-03-20T01:03:20.429Z,100245.19
2023-03-20T01:05:52.230Z,100242.00
2023-03-20T01:06:55.206Z,100243.63
2023-03-20T01:07:57.210Z,100248.83
2023-03-20T01:09:02.268Z,100243.47
2023-03-20T01:10:05.935Z,100250.65
2023-03-20T01:11:12.941Z,100249.78
2023-03-20T01:12:17.142Z,100247.27
2023-03-20T01:13:32.241Z,100247.33
2023-03-20T01:14:34.778Z,100245.41
2023-03-20T01:15:37.189Z,100240.97
2023-03-20T01:16:40.024Z,100245.34
2023-03-20T01:17:43.088Z,100243.53
2023-03-20T01:18:45.647Z,100240.97
2023-03-20T01:19:48.141Z,100245.41
2023-03-20T01:20:52.712Z,100237.53
2023-03-20T01:23:09.488Z,100236.06
2023-03-20T01:24:11.827Z,100236.79
2023-03-20T01:25:13.959Z,100240.23
2023-03-20T01:26:23.904Z,100233.16
2023-03-20T01:27:26.349Z,100235.00
2023-03-20T01:28:33.480Z,100235.86
2023-03-20T01:29:35.894Z,100231.67
2023-03-20T01:30:39.044Z,100234.27
2023-03-20T01:31:41.950Z,100234.27
2023-03-20T01:32:44.226Z,100230.75
2023-03-20T01:33:47.030Z,100234.33
2023-03-20T01:34:49.317Z,100235.25
2023-03-20T01:35:52.437Z,100240.55
2023-03-20T01:36:58.085Z,100233.40
2023-03-20T01:38:01.035Z,100240.55
2023-03-20T01:39:03.932Z,100228.32
2023-03-20T01:40:10.926Z,100235.41
2023-03-20T01:41:16.769Z,100231.80
2023-03-20T01:42:23.809Z,100234.45
2023-03-20T01:43:27.687Z,100224.81
2023-03-20T01:44:33.548Z,100224.88
2023-03-20T01:45:38.180Z,100225.80
2023-03-20T01:46:41.646Z,100226.78
2023-03-20T01:47:49.053Z,100230.36
2023-03-20T01:49:02.116Z,100219.76
2023-03-20T01:50:30.368Z,100228.62
2023-03-20T01:51:34.930Z,100228.62
2023-03-20T01:52:43.197Z,100232.20
2023-03-20T01:55:06.787Z,100224.81
2023-03-20T01:56:12.643Z,100225.58
2023-03-20T01:57:25.953Z,100222.87
2023-03-20T01:58:32.818Z,100233.46
2023-03-20T02:01:07.324Z,100223.33
2023-03-20T02:02:13.396Z,100230.13
2023-03-20T02:03:18.145Z,100228.41
2023-03-20T02:04:44.012Z,100232.84
2023-03-20T02:05:48.839Z,100238.94
2023-03-20T02:06:51.420Z,100232.84
2023-03-20T02:08:25.154Z,100228.41
2023-03-20T02:09:29.345Z,100228.34
2023-03-20T02:10:34.845Z,100233.70
2023-03-20T02:11:44.314Z,100229.27
2023-03-20T02:12:48.042Z,100234.69
2023-03-20T02:13:55.790Z,100238.25
2023-03-20T02:14:59.124Z,100238.25
2023-03-20T02:16:06.834Z,100232.96
2023-03-20T02:17:27.510Z,100241.92
2023-03-20T02:18:35.114Z,100227.88
2023-03-20T02:20:05.775Z,100235.82
2023-03-20T02:21:23.673Z,100236.77
2023-03-20T02:22:49.719Z,100239.39
2023-03-20T02:24:17.841Z,100237.69
2023-03-20T02:25:24.208Z,100245.88
2023-03-20T02:26:47.331Z,100240.46
2023-03-20T02:28:19.214Z,100227.40
2023-03-20T02:29:54.463Z,100238.95
2023-03-20T02:31:29.303Z,100238.95
2023-03-20T02:32:45.664Z,100233.70
2023-03-20T02:34:00.607Z,100240.73
2023-03-20T02:35:24.860Z,100241.77
2023-03-20T02:36:40.338Z,100238.31
2023-03-20T02:37:52.091Z,100244.53
2023-03-20T02:38:57.893Z,100245.45
2023-03-20T02:40:03.916Z,100241.20
2023-03-20T02:41:09.729Z,100241.20
2023-03-20T02:43:53.465Z,100240.96
2023-03-20T02:45:14.603Z,100239.84
2023-03-20T02:46:20.703Z,100238.13
2023-03-20T02:47:29.708Z,100237.27
2023-03-20T02:48:45.726Z,100235.53
2023-03-20T02:51:26.271Z,100229.89
2023-03-20T02:52:35.202Z,100231.59
2023-03-20T02:53:59.508Z,100229.88
2023-03-20T02:56:22.553Z,100216.16
2023-03-20T02:59:18.640Z,100216.30
2023-03-20T03:00:33.621Z,100227.66
2023-03-20T03:03:02.534Z,100217.39
2023-03-20T03:04:08.447Z,100222.48
2023-03-20T03:05:16.955Z,100222.42
2023-03-20T03:06:30.518Z,100213.63
2023-03-20T03:07:35.928Z,100210.92
2023-03-20T03:08:41.822Z,100202.17
2023-03-20T03:09:48.185Z,100203.04
2023-03-20T03:10:57.138Z,100200.39
2023-03-20T03:13:20.022Z,100198.23
2023-03-20T03:14:40.836Z,100196.20
2023-03-20T03:15:48.442Z,100197.98
2023-03-20T03:16:54.229Z,100197.00
2023-03-20T03:17:59.510Z,100193.55
2023-03-20T03:19:15.138Z,100185.62
2023-03-20T03:20:32.555Z,100182.20
2023-03-20T03:21:39.596Z,100181.28
2023-03-20T03:22:42.092Z,100182.97
2023-03-20T03:23:48.508Z,100183.13
2023-03-20T03:24:53.051Z,100177.95
2023-03-20T03:25:57.888Z,100184.95
2023-03-20T03:28:29.048Z,100175.78
2023-03-20T03:29:34.938Z,100180.00
2023-03-20T03:30:39.265Z,100177.30
2023-03-20T03:31:44.087Z,100179.14
2023-03-20T03:34:12.782Z,100175.41
2023-03-20T03:35:18.522Z,100168.19
2023-03-20T03:36:26.925Z,100176.92
2023-03-20T03:38:01.986Z,100175.09
2023-03-20T03:39:36.928Z,100171.58
2023-03-20T03:40:51.290Z,100175.95
2023-03-20T03:41:57.148Z,100165.38
2023-03-20T03:43:14.170Z,100172.55
2023-03-20T03:45:59.346Z,100171.16
2023-03-20T03:47:11.152Z,100171.83
2023-03-20T03:48:21.885Z,100177.17
2023-03-20T03:50:47.461Z,100173.19
2023-03-20T03:51:53.511Z,100182.68
2023-03-20T03:52:58.587Z,100178.20
2023-03-20T03:54:10.265Z,100184.52
2023-03-20T03:55:22.552Z,100174.86
2023-03-20T03:57:45.335Z,100183.84
2023-03-20T03:58:53.013Z,100188.33
2023-03-20T03:59:57.933Z,100179.59
2023-03-20T04:01:03.728Z,100184.12
2023-03-20T04:02:08.030Z,100181.53
2023-03-20T04:03:11.876Z,100187.83
2023-03-20T04:04:15.183Z,100185.33
2023-03-20T04:05:20.508Z,100178.38
2023-03-20T04:06:25.392Z,100188.19
2023-03-20T04:07:27.794Z,100183.77
2023-03-20T04:08:30.736Z,100183.05
2023-03-20T04:09:34.758Z,100189.20
2023-03-20T04:10:37.164Z,100183.97
2023-03-20T04:11:39.760Z,100180.50
2023-03-20T04:12:44.730Z,100179.55
2023-03-20T04:13:49.236Z,100180.50
2023-03-20T04:14:51.868Z,100178.77
2023-03-20T04:15:56.565Z,100175.27
2023-03-20T04:17:01.310Z,100179.69
2023-03-20T04:18:04.854Z,100175.22
2023-03-20T04:19:07.050Z,100188.42
2023-03-20T04:20:12.068Z,100183.92
2023-03-20T04:21:15.945Z,100183.92
2023-03-20T04:22:18.982Z,100182.09
2023-03-20T04:23:21.634Z,100183.81
2023-03-20T04:24:24.292Z,100185.55
2023-03-20T04:25:26.593Z,100185.49
2023-03-20T04:26:30.556Z,100188.13
2023-03-20T04:27:33.144Z,100187.27
2023-03-20T04:28:36.569Z,100189.00
2023-03-20T04:29:58.703Z,100191.69
2023-03-20T04:31:19.792Z,100188.08
2023-03-20T04:32:40.350Z,100188.03
2023-03-20T04:33:48.033Z,100190.61
2023-03-20T04:36:21.294Z,100184.88
2023-03-20T04:37:24.600Z,100194.28
2023-03-20T04:38:28.717Z,100189.80
2023-03-20T04:39:31.487Z,100196.81
2023-03-20T04:40:33.769Z,100198.59
2023-03-20T04:41:36.012Z,100199.41
2023-03-20T04:42:39.509Z,100192.55
2023-03-20T04:43:41.818Z,100192.55
2023-03-20T04:44:43.950Z,100193.41
2023-03-20T04:45:46.600Z,100194.23
2023-03-20T04:46:49.324Z,100197.73
2023-03-20T04:47:52.179Z,100195.90
2023-03-20T04:48:56.197Z,100196.87
2023-03-20T04:50:00.390Z,100192.45
2023-03-20T04:51:03.584Z,100199.56
2023-03-20T04:52:07.806Z,100189.80
2023-03-20T04:53:12.446Z,100194.17
2023-03-20T04:54:14.742Z,100196.00
2023-03-20T04:55:18.084Z,100193.31
2023-03-20T04:56:20.417Z,100187.27
2023-03-20T04:57:24.964Z,100187.16
2023-03-20T04:58:29.136Z,100196.81
2023-03-20T04:59:32.665Z,100192.55
2023-03-20T05:00:35.200Z,100187.16
2023-03-20T05:01:37.904Z,100193.36
2023-03-20T05:02:40.191Z,100188.89
2023-03-20T05:03:43.651Z,100188.89
2023-03-20T05:04:46.750Z,100188.78
2023-03-20T05:05:50.336Z,100187.92
2023-03-20T05:06:52.726Z,100185.19
2023-03-20T05:07:56.945Z,100189.61
2023-03-20T05:09:01.749Z,100191.34
2023-03-20T05:10:06.790Z,100193.20
2023-03-20T05:11:11.042Z,100187.06
2023-03-20T05:12:27.020Z,100182.64
2023-03-20T05:13:34.913Z,100182.69
2023-03-20T05:16:07.614Z,100192.80
2023-03-20T05:17:14.586Z,100190.77
2023-03-20T05:18:18.715Z,100189.00
2023-03-20T05:19:39.187Z,100190.72
2023-03-20T05:20:55.354Z,100190.72
2023-03-20T05:23:25.007Z,100186.81
2023-03-20T05:24:29.119Z,100198.05
2023-03-20T05:25:36.759Z,100197.94
2023-03-20T05:26:53.502Z,100189.20
2023-03-20T05:28:03.926Z,100196.97
2023-03-20T05:29:08.045Z,100192.55
2023-03-20T05:30:14.949Z,100196.11
2023-03-20T05:32:39.021Z,100191.28
2023-03-20T05:33:50.260Z,100199.91
2023-03-20T05:35:12.116Z,100191.80
2023-03-20T05:36:19.356Z,100189.09
2023-03-20T05:37:24.210Z,100192.45
2023-03-20T05:38:34.170Z,100200.89
2023-03-20T05:39:47.560Z,100197.06
2023-03-20T05:40:57.943Z,100199.23
2023-03-20T05:42:14.471Z,100200.61
2023-03-20T05:43:25.662Z,100199.21
2023-03-20T05:44:42.305Z,100199.70
2023-03-20T05:45:46.616Z,100189.53
2023-03-20T05:47:00.297Z,100196.28
2023-03-20T05:48:19.961Z,100200.33
2023-03-20T05:50:40.696Z,100198.22
2023-03-20T05:53:10.073Z,100199.22
2023-03-20T05:54:14.810Z,100199.56
2023-03-20T05:56:31.485Z,100205.03
2023-03-20T05:57:48.941Z,100206.36
2023-03-20T05:58:56.124Z,100201.87
2023-03-20T06:00:19.397Z,100202.79
2023-03-20T06:01:22.056Z,100206.23
2023-03-20T06:02:28.936Z,100208.89
2023-03-20T06:03:33.110Z,100202.79
2023-03-20T06:04:40.034Z,100206.36
2023-03-20T06:05:49.688Z,100205.56
2023-03-20T06:06:51.900Z,100201.06
2023-03-20T06:07:54.253Z,100204.52
2023-03-20T06:08:56.434Z,100202.79
2023-03-20T06:09:58.734Z,100205.31
2023-03-20T06:11:02.439Z,100201.74
2023-03-20T06:12:06.067Z,100198.17
2023-03-20T06:13:08.262Z,100204.39
2023-03-20T06:14:10.945Z,100202.61
2023-03-20T06:15:15.090Z,100200.82
2023-03-20T06:16:19.345Z,100200.82
2023-03-20T06:17:23.451Z,100200.82
2023-03-20T06:18:27.593Z,100207.84
2023-03-20T06:19:30.366Z,100202.67
2023-03-20T06:20:32.962Z,100211.07
2023-03-20T06:21:37.075Z,100215.08
2023-03-20T06:22:39.376Z,100205.05
2023-03-20T06:23:42.552Z,100209.18
2023-03-20T06:24:44.687Z,100211.67
2023-03-20T06:25:47.144Z,100211.55
2023-03-20T06:26:50.440Z,100202.66
2023-03-20T06:27:54.006Z,100212.34
2023-03-20T06:28:56.396Z,100201.80
2023-03-20T06:29:59.163Z,100216.05
2023-03-20T06:31:03.341Z,100208.09
2023-03-20T06:32:09.073Z,100214.31
2023-03-20T06:33:11.378Z,100208.16
2023-03-20T06:34:16.099Z,100213.55
2023-03-20T06:35:20.302Z,100208.25
2023-03-20T06:36:24.373Z,100216.27
2023-03-20T06:37:29.096Z,100220.70
2023-03-20T06:38:33.784Z,100217.25
2023-03-20T06:39:37.906Z,100211.95
2023-03-20T06:40:41.461Z,100212.08
2023-03-20T06:41:43.940Z,100214.73
2023-03-20T06:42:46.051Z,100217.38
2023-03-20T06:43:50.518Z,100213.01
2023-03-20T06:44:53.580Z,100215.66
2023-03-20T06:46:05.278Z,100219.23
2023-03-20T06:47:08.575Z,100217.50
2023-03-20T06:48:10.780Z,100220.16
2023-03-20T06:49:14.141Z,100217.56
2023-03-20T06:50:16.634Z,100221.94
2023-03-20T06:51:19.479Z,100212.27
2023-03-20T06:52:23.612Z,100217.50
2023-03-20T06:53:28.678Z,100220.95
2023-03-20T06:54:39.080Z,100216.52
2023-03-20T06:55:42.452Z,100211.95
2023-03-20T06:56:46.030Z,100208.38
2023-03-20T06:57:48.796Z,100215.41
2023-03-20T06:58:52.871Z,100217.13
2023-03-20T06:59:54.973Z,100209.95
2023-03-20T07:00:57.600Z,100216.97
2023-03-20T07:02:00.694Z,100213.39
2023-03-20T07:03:03.875Z,100208.09
2023-03-20T07:04:08.375Z,100211.55
2023-03-20T07:05:12.676Z,100206.24
2023-03-20T07:06:16.638Z,100211.41
2023-03-20T07:07:19.700Z,100207.77
2023-03-20T07:08:22.415Z,100214.80
2023-03-20T07:09:25.358Z,100213.81
2023-03-20T07:10:27.649Z,100211.16
2023-03-20T07:11:31.389Z,100205.70
2023-03-20T07:12:33.696Z,100207.42
2023-03-20T07:13:37.857Z,100202.98
2023-03-20T07:14:42.705Z,100206.37
2023-03-20T07:16:02.996Z,100206.37
2023-03-20T07:16:54.085Z,100211.53
2023-03-20T07:17:56.622Z,100205.31
2023-03-20T07:19:00.759Z,100206.17
2023-03-20T07:20:05.379Z,100210.45
2023-03-20T07:21:07.860Z,100210.31
2023-03-20T07:22:23.545Z,100205.81
2023-03-20T07:23:26.101Z,100204.02
2023-03-20T07:24:28.469Z,100213.56
2023-03-20T07:25:42.162Z,100202.89
2023-03-20T07:26:37.374Z,100201.04
2023-03-20T07:27:40.572Z,100207.20
2023-03-20T07:28:42.733Z,100205.31
2023-03-20T07:29:46.897Z,100202.59
2023-03-20T07:30:51.902Z,100204.32
2023-03-20T07:31:54.363Z,100205.12
2023-03-20T07:32:59.216Z,100204.19
2023-03-20T07:34:03.349Z,100197.03
2023-03-20T07:35:08.169Z,100202.27
2023-03-20T07:36:13.355Z,100205.61
2023-03-20T07:37:16.527Z,100201.10
2023-03-20T07:38:24.380Z,100205.34
2023-03-20T07:39:28.585Z,100210.65
2023-03-20T07:40:35.592Z,100205.21
2023-03-20T07:41:39.702Z,100210.45
2023-03-20T07:42:45.012Z,100200.63
2023-03-20T07:43:49.741Z,100207.56
2023-03-20T07:44:56.954Z,100199.47
2023-03-20T07:46:03.518Z,100195.88
2023-03-20T07:47:08.701Z,100201.05
2023-03-20T07:48:12.004Z,100208.94
2023-03-20T07:49:17.007Z,100200.77
2023-03-20T07:50:21.005Z,100201.47
2023-03-20T07:51:31.449Z,100199.53
2023-03-20T07:52:35.014Z,100202.05
2023-03-20T07:53:40.281Z,100198.39
2023-03-20T07:54:42.671Z,100191.12
2023-03-20T07:55:44.936Z,100201.59
2023-03-20T07:56:50.123Z,100194.36
2023-03-20T07:57:52.423Z,100196.01
2023-03-20T07:58:57.716Z,100187.11
2023-03-20T08:00:05.799Z,100186.94
2023-03-20T08:01:11.324Z,100186.00
2023-03-20T08:02:17.871Z,100188.52
2023-03-20T08:03:21.356Z,100183.92
2023-03-20T08:04:24.647Z,100188.23
2023-03-20T08:05:27.088Z,100181.05
2023-03-20T08:06:38.510Z,100184.39
2023-03-20T08:07:42.764Z,100175.50
2023-03-20T08:08:48.432Z,100180.73
2023-03-20T08:09:56.788Z,100175.28
2023-03-20T08:11:01.901Z,100178.80
2023-03-20T08:12:09.064Z,100179.55
2023-03-20T08:13:13.209Z,100182.05
2023-03-20T08:14:17.320Z,100177.57
2023-03-20T08:15:21.128Z,100172.04
2023-03-20T08:16:29.518Z,100175.48
2023-03-20T08:17:31.906Z,100179.71
2023-03-20T08:18:34.221Z,100177.84
2023-03-20T08:19:36.295Z,100174.07
2023-03-20T08:20:42.233Z,100180.09
2023-03-20T08:21:45.040Z,100185.26
2023-03-20T08:22:47.933Z,100178.94
2023-03-20T08:23:50.480Z,100184.06
2023-03-20T08:24:59.714Z,100182.20
2023-03-20T08:26:02.164Z,100181.11
2023-03-20T08:27:06.896Z,100179.23
2023-03-20T08:28:10.109Z,100188.78
2023-03-20T08:29:12.517Z,100177.97
2023-03-20T08:30:15.250Z,100182.19
2023-03-20T08:31:17.989Z,100190.02
2023-03-20T08:32:20.244Z,100185.48
2023-03-20T08:33:23.049Z,100179.16
2023-03-20T08:34:27.173Z,100179.91
2023-03-20T08:35:33.468Z,100189.52
2023-03-20T08:36:38.438Z,100182.33
2023-03-20T08:37:42.218Z,100182.17
2023-03-20T08:38:44.448Z,100182.10
2023-03-20T08:39:47.286Z,100186.41
2023-03-20T08:40:53.363Z,100179.09
2023-03-20T08:42:04.390Z,100178.09
2023-03-20T08:43:09.296Z,100174.48
2023-03-20T08:44:14.510Z,100171.67
2023-03-20T08:45:17.689Z,100175.89
2023-03-20T08:46:19.925Z,100174.02
2023-03-20T08:47:22.338Z,100170.23
2023-03-20T08:48:25.051Z,100173.59
2023-03-20T08:49:27.399Z,100176.09
2023-03-20T08:50:31.218Z,100169.75
2023-03-20T08:51:33.967Z,100177.66
2023-03-20T08:52:36.951Z,100176.60
2023-03-20T08:53:39.861Z,100167.59
2023-03-20T08:54:42.524Z,100155.08
2023-03-20T08:55:49.853Z,100162.03
2023-03-20T08:56:56.642Z,100167.20
2023-03-20T08:58:03.400Z,100162.66
2023-03-20T08:59:05.578Z,100158.08
2023-03-20T09:00:11.781Z,100157.92
2023-03-20T09:01:14.512Z,100163.16
2023-03-20T09:02:17.480Z,100156.81
2023-03-20T09:03:23.636Z,100154.93
2023-03-20T09:04:27.565Z,100157.42
2023-03-20T09:05:34.745Z,100151.91
2023-03-20T09:06:37.291Z,100146.42
2023-03-20T09:10:54.930Z,100149.91
2023-03-20T09:11:58.024Z,100161.17
2023-03-20T09:13:49.986Z,100151.21
2023-03-20T09:15:06.005Z,100147.83
2023-03-20T09:16:09.594Z,100137.97
2023-03-20T09:17:11.919Z,100137.44
2023-03-20T09:18:14.604Z,100135.37
2023-03-20T09:19:18.743Z,100119.27
2023-03-20T09:20:22.028Z,100130.77
2023-03-20T09:21:25.706Z,100133.36
2023-03-20T09:22:28.498Z,100127.82
2023-03-20T09:23:30.709Z,100129.53
2023-03-20T09:24:32.843Z,100130.39
2023-03-20T09:25:35.316Z,100133.05
2023-03-20T09:26:40.492Z,100125.96
2023-03-20T09:27:43.322Z,100121.55
2023-03-20T09:28:45.430Z,100129.66
2023-03-20T09:29:49.586Z,100124.50
2023-03-20T09:31:00.607Z,100123.86
2023-03-20T09:32:02.868Z,100118.56
2023-03-20T09:33:05.857Z,100113.14
2023-03-20T09:34:08.160Z,100117.95
2023-03-20T09:35:10.342Z,100117.25
2023-03-20T09:36:13.652Z,100114.02
2023-03-20T09:37:15.650Z,100116.10
2023-03-20T09:38:18.248Z,100117.36
2023-03-20T09:39:22.460Z,100109.58
2023-03-20T09:40:46.063Z,100116.20
2023-03-20T09:41:57.153Z,100115.70
2023-03-20T09:43:09.312Z,100116.73
2023-03-20T09:44:25.997Z,100112.81
2023-03-20T09:45:49.352Z,100115.30
2023-03-20T09:47:23.915Z,100117.52
2023-03-20T09:50:20.840Z,100113.88
2023-03-20T09:53:23.989Z,100111.43
2023-03-20T09:54:58.169Z,100105.33
2023-03-20T09:56:05.178Z,100108.52
2023-03-20T09:58:37.802Z,100103.64
2023-03-20T09:59:42.421Z,100115.71
2023-03-20T10:00:46.240Z,100102.29
2023-03-20T10:01:52.429Z,100103.14
2023-03-20T10:03:08.171Z,100100.96
2023-03-20T10:04:13.565Z,100100.69
2023-03-20T10:05:33.042Z,100087.88
2023-03-20T10:06:41.808Z,100094.84
2023-03-20T10:07:45.497Z,100092.90
2023-03-20T10:08:50.713Z,100080.20
2023-03-20T10:09:54.488Z,100084.72
2023-03-20T10:11:09.522Z,100090.72
2023-03-20T10:12:41.454Z,100086.20
2023-03-20T10:14:05.669Z,100082.50
2023-03-20T10:15:11.502Z,100083.36
2023-03-20T10:16:30.064Z,100076.28
2023-03-20T10:17:46.432Z,100083.36
2023-03-20T10:19:07.656Z,100086.90
2023-03-20T10:20:38.312Z,100085.92
2023-03-20T10:21:48.245Z,100081.41
2023-03-20T10:24:20.891Z,100074.06
2023-03-20T10:25:47.156Z,100068.49
2023-03-20T10:26:57.314Z,100075.58
2023-03-20T10:28:06.265Z,100071.91
2023-03-20T10:29:28.617Z,100065.80
2023-03-20T10:31:02.536Z,100065.80
2023-03-20T10:34:22.360Z,100056.52
2023-03-20T10:37:35.384Z,100052.36
2023-03-20T10:38:44.908Z,100063.10
2023-03-20T10:40:12.194Z,100063.10
2023-03-20T10:41:22.740Z,100051.78
2023-03-20T10:42:35.853Z,100046.41
2023-03-20T10:43:43.050Z,100038.47
2023-03-20T10:44:47.384Z,100042.12
2023-03-20T10:46:14.637Z,100035.29
2023-03-20T10:47:21.046Z,100032.72
2023-03-20T10:48:39.888Z,100038.95
2023-03-20T10:49:51.320Z,100040.89
2023-03-20T10:52:17.575Z,100028.59
2023-03-20T10:54:41.106Z,100030.89
2023-03-20T10:55:45.079Z,100030.41
2023-03-20T10:56:49.973Z,100031.25
2023-03-20T10:58:10.223Z,100029.43
2023-03-20T10:59:19.093Z,100026.86
2023-03-20T11:00:23.951Z,100016.01
2023-03-20T11:01:26.614Z,100026.01
2023-03-20T11:02:30.701Z,100025.16
2023-03-20T11:03:33.724Z,100024.56
2023-03-20T11:04:35.988Z,100017.48
2023-03-20T11:05:39.454Z,100018.70
2023-03-20T11:06:57.855Z,100018.81
2023-03-20T11:10:37.310Z,100015.36
2023-03-20T11:11:40.261Z,100016.09
2023-03-20T11:12:44.556Z,100009.64
2023-03-20T11:13:47.108Z,100006.95
2023-03-20T11:14:49.606Z,100009.87
2023-03-20T11:15:53.496Z,100009.87
2023-03-20T11:16:59.428Z,100002.80
2023-03-20T11:18:05.542Z,100015.47
2023-03-20T11:19:10.426Z,100003.37
2023-03-20T11:20:13.786Z,99996.68
2023-03-20T11:22:33.757Z,99993.50
2023-03-20T11:23:37.114Z,100000.55
2023-03-20T11:24:45.309Z,99991.53
2023-03-20T11:25:51.076Z,99989.83
2023-03-20T11:26:55.443Z,99990.80
2023-03-20T11:28:36.060Z,99988.87
2023-03-20T11:29:40.502Z,99986.00
2023-03-20T11:31:01.437Z,99984.06
2023-03-20T11:31:46.885Z,99984.06
2023-03-20T11:33:21.971Z,99984.94
2023-03-20T11:34:26.781Z,99976.63
2023-03-20T11:35:30.740Z,99983.70
2023-03-20T11:36:34.236Z,99981.25
2023-03-20T11:38:17.545Z,99973.00
2023-03-20T11:40:33.656Z,99961.41
2023-03-20T11:41:58.042Z,99966.36
2023-03-20T11:43:03.904Z,99978.48
2023-03-20T11:44:50.552Z,99967.45
2023-03-20T11:46:00.795Z,99978.00
2023-03-20T11:47:07.691Z,99973.61
2023-03-20T11:51:24.467Z,99969.44
2023-03-20T11:53:50.023Z,99961.77
2023-03-20T11:55:28.382Z,99953.07
2023-03-20T11:56:34.283Z,99959.80
2023-03-20T11:57:39.666Z,99956.16
2023-03-20T11:59:11.438Z,99958.83
2023-03-20T12:00:23.792Z,99952.73
2023-03-20T12:01:27.666Z,99953.48
2023-03-20T12:02:30.599Z,99938.59
2023-03-20T12:03:51.827Z,99940.53
2023-03-20T12:06:15.624Z,99929.16
2023-03-20T12:07:22.006Z,99941.23
2023-03-20T12:08:27.800Z,99942.94
2023-03-20T12:09:50.722Z,99945.62
2023-03-20T12:10:59.225Z,99931.38
2023-03-20T12:12:05.617Z,99933.09
2023-03-20T12:13:23.159Z,99938.66
2023-03-20T12:15:53.869Z,99924.47
2023-03-20T12:18:30.551Z,99927.73
2023-03-20T12:19:34.784Z,99925.67
2023-03-20T12:20:46.633Z,99915.81
2023-03-20T12:23:21.681Z,99910.30
2023-03-20T12:24:39.419Z,99903.88
2023-03-20T12:25:57.281Z,99914.58
2023-03-20T12:27:12.579Z,99916.18
2023-03-20T12:28:53.995Z,99909.86
2023-03-20T12:30:06.003Z,99917.15
2023-03-20T12:31:30.194Z,99904.37
2023-03-20T12:32:53.131Z,99918.72
2023-03-20T12:36:51.345Z,99905.75
2023-03-20T12:38:15.235Z,99900.45
2023-03-20T12:39:38.774Z,99900.23
2023-03-20T12:40:58.450Z,99899.38
2023-03-20T12:42:31.469Z,99900.23
2023-03-20T12:43:54.548Z,99893.17
2023-03-20T12:45:21.523Z,99888.67
2023-03-20T12:46:36.880Z,99893.92
2023-03-20T12:48:17.681Z,99903.66
2023-03-20T12:49:41.359Z,99892.20
2023-03-20T12:52:29.794Z,99888.09
2023-03-20T12:54:05.715Z,99882.52
2023-03-20T12:55:26.565Z,99886.77
2023-03-20T12:56:32.546Z,99878.73
2023-03-20T12:57:41.122Z,99886.05
2023-03-20T12:59:08.325Z,99888.95
2023-03-20T13:00:18.079Z,99878.25
2023-03-20T13:01:37.496Z,99875.57
2023-03-20T13:03:00.408Z,99872.04
2023-03-20T13:04:33.211Z,99871.19
2023-03-20T13:07:02.242Z,99868.23
2023-03-20T13:08:32.421Z,99878.47
2023-03-20T13:09:38.764Z,99877.72
2023-03-20T13:13:08.778Z,99862.77
2023-03-20T13:14:20.654Z,99861.55
2023-03-20T13:17:03.235Z,99865.55
2023-03-20T13:18:28.170Z,99860.70
2023-03-20T13:19:43.385Z,99858.77
2023-03-20T13:22:07.737Z,99854.44
2023-03-20T13:23:31.492Z,99865.78
2023-03-20T13:24:40.425Z,99851.44
2023-03-20T13:25:58.613Z,99840.37
2023-03-20T13:27:30.173Z,99850.22
2023-03-20T13:28:54.752Z,99861.89
2023-03-20T13:30:20.335Z,99859.84
2023-03-20T13:31:31.761Z,99848.30
2023-03-20T13:32:53.150Z,99850.00
2023-03-20T13:34:10.765Z,99850.00
2023-03-20T13:35:16.659Z,99844.66
2023-03-20T13:36:29.311Z,99857.06
2023-03-20T13:37:35.096Z,99846.58
2023-03-20T13:40:26.208Z,99833.51
2023-03-20T13:41:29.352Z,99844.59
2023-03-20T13:42:47.112Z,99836.84
2023-03-20T13:45:08.961Z,99832.77
2023-03-20T13:46:23.462Z,99842.14
2023-03-20T13:47:28.775Z,99835.83
2023-03-20T13:50:25.580Z,99839.08
2023-03-20T13:54:31.716Z,99823.25
2023-03-20T13:55:47.372Z,99822.67
2023-03-20T13:56:59.242Z,99829.52
2023-03-20T13:58:27.569Z,99824.91
2023-03-20T13:59:49.999Z,99825.66
2023-03-20T14:01:19.137Z,99824.69
2023-03-20T14:02:57.824Z,99823.72
2023-03-20T14:04:02.056Z,99826.40
2023-03-20T14:05:15.493Z,99813.98
2023-03-20T14:06:33.241Z,99814.95
2023-03-20T14:07:37.851Z,99814.10
2023-03-20T14:10:19.300Z,99808.69
2023-03-20T14:11:26.116Z,99807.48
2023-03-20T14:12:31.793Z,99815.06
2023-03-20T14:13:35.097Z,99815.06
2023-03-20T14:14:56.115Z,99806.19
2023-03-20T14:16:02.298Z,99809.61
2023-03-20T14:20:40.776Z,99786.50
2023-03-20T14:21:52.352Z,99794.41
2023-03-20T14:23:16.025Z,99785.53
2023-03-20T14:24:20.373Z,99790.77
2023-03-20T14:25:23.783Z,99794.30
2023-03-20T14:26:38.768Z,99793.30
2023-03-20T14:28:04.967Z,99788.80
2023-03-20T14:29:14.325Z,99798.43
2023-03-20T14:30:33.172Z,99789.44
2023-03-20T14:31:37.891Z,99784.09
2023-03-20T14:34:08.892Z,99782.42
2023-03-20T14:35:26.223Z,99777.50